PWSweather.com
Personal Weather Stations
Station Observations

AwhituWaiuku, CA 268400

Lat: -37.058, Lon: -174.6346

Elevation: 250

Station Type: Personal

http://www.weather-display.com/windy/gb/grahamsbeach.htm

High Low Average
Temperature 76.4°F24.7°F 66.3°F19.1°F 70.0°F21.1°F
Dew Point 65.1°F18.4°F 59.9°F15.5°F 62.8°F17.1°F
Winds 12.7 mph WSW20.4 mph WSW Calm Calm 4.8 mph 7.7 mph
Wind Gusts 18.4 mph29.6 mph -- 7.5 mph12.1 mph
Humidity 87% 66% 78%
Pressure 29.85 in1010.80 in 29.75 in1007.50 in -
Precipitation 0.00 in0.00 in - -
Hour Temp Dew Point Humidity Winds Wind Gusts Pressure Precip Precip Rate Daily Precip Total
12:00 AM 67.7°F19.8°C 61.3°F16.3°C 80% 2.3 mph ENE3.7 kmh ENE 6.9 mph11.1 kmh 29.85 in1010.8 mb - 0.00 in0.0 mm 0.00 in0.0 mm
12:30 AM 67.6°F19.8°C 61.2°F16.2°C 80% 1.2 mph ENE1.9 kmh ENE 3.5 mph5.6 kmh 29.84 in1010.5 mb - 0.00 in0.0 mm 0.00 in0.0 mm
01:00 AM 67.5°F19.7°C 61.1°F16.2°C 80% 2.3 mph NE3.7 kmh NE 4.6 mph7.4 kmh 29.83 in1010.2 mb - 0.00 in0.0 mm 0.00 in0.0 mm
01:30 AM 67.4°F19.7°C 61.0°F16.1°C 80% 2.3 mph ENE3.7 kmh ENE 3.5 mph5.6 kmh 29.82 in1009.8 mb - 0.00 in0.0 mm 0.00 in0.0 mm
02:00 AM 67.2°F19.6°C 60.8°F16.0°C 80% Calm Calm -- 29.82 in1009.8 mb - 0.00 in0.0 mm 0.00 in0.0 mm
02:30 AM 67.0°F19.4°C 60.9°F16.1°C 81% 2.3 mph ENE3.7 kmh ENE 4.6 mph7.4 kmh 29.81 in1009.5 mb - 0.00 in0.0 mm 0.00 in0.0 mm
03:00 AM 66.9°F19.4°C 60.9°F16.1°C 81% Calm Calm -- 29.80 in1009.1 mb - 0.00 in0.0 mm 0.00 in0.0 mm
03:30 AM 66.9°F19.4°C 60.9°F16.1°C 81% 1.2 mph NE1.9 kmh NE 3.5 mph5.6 kmh 29.80 in1009.1 mb - 0.00 in0.0 mm 0.00 in0.0 mm
04:00 AM 66.8°F19.3°C 60.8°F16.0°C 81% 3.5 mph E5.6 kmh E 5.8 mph9.3 kmh 29.79 in1008.8 mb - 0.00 in0.0 mm 0.00 in0.0 mm
04:30 AM 66.6°F19.2°C 60.2°F15.7°C 80% 1.2 mph ENE1.9 kmh ENE 2.3 mph3.7 kmh 29.79 in1008.8 mb - 0.00 in0.0 mm 0.00 in0.0 mm
05:00 AM 66.6°F19.2°C 59.9°F15.5°C 79% Calm Calm 3.5 mph5.6 kmh 29.80 in1009.1 mb - 0.00 in0.0 mm 0.00 in0.0 mm
05:30 AM 66.5°F19.2°C 60.1°F15.6°C 80% 2.3 mph NNE3.7 kmh NNE 3.5 mph5.6 kmh 29.80 in1009.1 mb - 0.00 in0.0 mm 0.00 in0.0 mm
06:00 AM 66.4°F19.1°C 60.4°F15.8°C 81% 1.2 mph NE1.9 kmh NE 3.5 mph5.6 kmh 29.81 in1009.5 mb - 0.00 in0.0 mm 0.00 in0.0 mm
06:30 AM 66.3°F19.1°C 60.6°F15.9°C 82% Calm Calm -- 29.81 in1009.5 mb - 0.00 in0.0 mm 0.00 in0.0 mm
07:00 AM 66.4°F19.1°C 61.1°F16.2°C 83% Calm Calm -- 29.81 in1009.5 mb - 0.00 in0.0 mm 0.00 in0.0 mm
07:30 AM 67.0°F19.4°C 62.0°F16.7°C 84% Calm Calm -- 29.82 in1009.8 mb - 0.00 in0.0 mm 0.00 in0.0 mm
08:00 AM 67.5°F19.7°C 62.5°F16.9°C 84% Calm Calm 3.5 mph5.6 kmh 29.83 in1010.2 mb - 0.00 in0.0 mm 0.00 in0.0 mm
08:30 AM 67.7°F19.8°C 62.3°F16.8°C 83% 2.3 mph NE3.7 kmh NE 3.5 mph5.6 kmh 29.83 in1010.2 mb - 0.00 in0.0 mm 0.00 in0.0 mm
09:00 AM 69.0°F20.6°C 63.3°F17.4°C 82% 1.2 mph NE1.9 kmh NE 3.5 mph5.6 kmh 29.82 in1009.8 mb - 0.00 in0.0 mm 0.00 in0.0 mm
09:30 AM 70.4°F21.3°C 63.2°F17.3°C 78% Calm Calm 2.3 mph3.7 kmh 29.82 in1009.8 mb - 0.00 in0.0 mm 0.00 in0.0 mm
10:00 AM 71.3°F21.8°C 63.3°F17.4°C 76% 2.3 mph NE3.7 kmh NE 3.5 mph5.6 kmh 29.82 in1009.8 mb - 0.00 in0.0 mm 0.00 in0.0 mm
10:30 AM 71.7°F22.1°C 63.3°F17.4°C 75% 2.3 mph NW3.7 kmh NW 2.3 mph3.7 kmh 29.81 in1009.5 mb - 0.00 in0.0 mm 0.00 in0.0 mm
11:00 AM 72.5°F22.5°C 64.1°F17.8°C 75% 1.2 mph W1.9 kmh W 8.1 mph13.0 kmh 29.80 in1009.1 mb - 0.00 in0.0 mm 0.00 in0.0 mm
11:30 AM 72.8°F22.7°C 64.0°F17.8°C 74% 5.8 mph WSW9.3 kmh WSW 9.2 mph14.8 kmh 29.80 in1009.1 mb - 0.00 in0.0 mm 0.00 in0.0 mm
12:00 PM 73.2°F22.9°C 63.6°F17.6°C 72% 6.9 mph SW11.1 kmh SW 9.2 mph14.8 kmh 29.79 in1008.8 mb - 0.00 in0.0 mm 0.00 in0.0 mm
12:30 PM 74.3°F23.5°C 64.3°F17.9°C 71% 6.9 mph SW11.1 kmh SW 9.2 mph14.8 kmh 29.79 in1008.8 mb - 0.00 in0.0 mm 0.00 in0.0 mm
01:00 PM 76.4°F24.7°C 65.1°F18.4°C 68% 5.8 mph SSW9.3 kmh SSW 5.8 mph9.3 kmh 29.78 in1008.5 mb - 0.00 in0.0 mm 0.00 in0.0 mm
01:30 PM 75.8°F24.3°C 64.5°F18.1°C 68% 6.9 mph SW11.1 kmh SW 11.5 mph18.5 kmh 29.78 in1008.5 mb - 0.00 in0.0 mm 0.00 in0.0 mm
02:00 PM 76.1°F24.5°C 64.4°F18.0°C 67% 5.8 mph WSW9.3 kmh WSW 10.4 mph16.7 kmh 29.77 in1008.1 mb - 0.00 in0.0 mm 0.00 in0.0 mm
02:30 PM 75.3°F24.1°C 63.1°F17.3°C 66% 8.1 mph SW13.0 kmh SW 13.8 mph22.2 kmh 29.77 in1008.1 mb - 0.00 in0.0 mm 0.00 in0.0 mm
03:00 PM 74.9°F23.8°C 64.8°F18.2°C 71% 10.4 mph SW16.7 kmh SW 11.5 mph18.5 kmh 29.77 in1008.1 mb - 0.00 in0.0 mm 0.00 in0.0 mm
03:30 PM 74.3°F23.5°C 63.4°F17.4°C 69% 10.4 mph SW16.7 kmh SW 11.5 mph18.5 kmh 29.76 in1007.8 mb - 0.00 in0.0 mm 0.00 in0.0 mm
04:00 PM 73.1°F22.8°C 63.5°F17.5°C 72% 9.2 mph SW14.8 kmh SW 16.1 mph25.9 kmh 29.76 in1007.8 mb - 0.00 in0.0 mm 0.00 in0.0 mm
04:30 PM 74.5°F23.6°C 63.7°F17.6°C 69% 12.7 mph SW20.4 kmh SW 18.4 mph29.6 kmh 29.76 in1007.8 mb - 0.00 in0.0 mm 0.00 in0.0 mm
05:00 PM 75.2°F24.0°C 64.3°F17.9°C 69% 12.7 mph WSW20.4 kmh WSW 15.0 mph24.1 kmh 29.75 in1007.5 mb - 0.00 in0.0 mm 0.00 in0.0 mm
05:30 PM 73.5°F23.1°C 64.7°F18.2°C 74% 10.4 mph SW16.7 kmh SW 13.8 mph22.2 kmh 29.75 in1007.5 mb - 0.00 in0.0 mm 0.00 in0.0 mm
06:00 PM 71.4°F21.9°C 63.8°F17.7°C 77% 11.5 mph SW18.5 kmh SW 16.1 mph25.9 kmh 29.75 in1007.5 mb - 0.00 in0.0 mm 0.00 in0.0 mm
06:30 PM 70.1°F21.2°C 64.0°F17.8°C 81% 9.2 mph SW14.8 kmh SW 18.4 mph29.6 kmh 29.76 in1007.8 mb - 0.00 in0.0 mm 0.00 in0.0 mm
07:00 PM 69.6°F20.9°C 63.1°F17.3°C 80% 8.1 mph SSW13.0 kmh SSW 13.8 mph22.2 kmh 29.77 in1008.1 mb - 0.00 in0.0 mm 0.00 in0.0 mm
07:30 PM 68.7°F20.4°C 62.6°F17.0°C 81% 6.9 mph SSW11.1 kmh SSW 10.4 mph16.7 kmh 29.77 in1008.1 mb - 0.00 in0.0 mm 0.00 in0.0 mm
08:00 PM 68.6°F20.3°C 63.2°F17.3°C 83% 8.1 mph SW13.0 kmh SW 11.5 mph18.5 kmh 29.78 in1008.5 mb - 0.00 in0.0 mm 0.00 in0.0 mm
08:30 PM 68.5°F20.3°C 63.5°F17.5°C 84% 6.9 mph SSW11.1 kmh SSW 10.4 mph16.7 kmh 29.79 in1008.8 mb - 0.00 in0.0 mm 0.00 in0.0 mm
09:00 PM 68.7°F20.4°C 63.7°F17.6°C 84% 4.6 mph SSW7.4 kmh SSW 9.2 mph14.8 kmh 29.79 in1008.8 mb - 0.00 in0.0 mm 0.00 in0.0 mm
09:30 PM 68.3°F20.2°C 63.6°F17.6°C 85% 3.5 mph SW5.6 kmh SW 4.6 mph7.4 kmh 29.80 in1009.1 mb - 0.00 in0.0 mm 0.00 in0.0 mm
10:00 PM 68.6°F20.3°C 63.9°F17.7°C 85% 9.2 mph SSW14.8 kmh SSW 11.5 mph18.5 kmh 29.80 in1009.1 mb - 0.00 in0.0 mm 0.00 in0.0 mm
10:30 PM 68.6°F20.3°C 63.9°F17.7°C 85% 8.1 mph S13.0 kmh S 9.2 mph14.8 kmh 29.79 in1008.8 mb - 0.00 in0.0 mm 0.00 in0.0 mm
11:00 PM 68.6°F20.3°C 64.6°F18.1°C 87% 8.1 mph SW13.0 kmh SW 10.4 mph16.7 kmh 29.79 in1008.8 mb - 0.00 in0.0 mm 0.00 in0.0 mm
11:30 PM 68.5°F20.3°C 64.5°F18.1°C 87% 5.8 mph SW9.3 kmh SW 8.1 mph13.0 kmh 29.79 in1008.8 mb - 0.00 in0.0 mm 0.00 in0.0 mm